Flight Track Log - Related Links

Times and Time Zones

All times are in EDT time to prevent confusion due to time zone crossing. See the UPS106 flight status page for this flight to view local times or setup timezone preferences in your user account.

Time Position Orientation Groundspeed Altitude Reporting Facility
EDT Latitude Longitude Course Direction KTS MPH feet Rate Location/Type
Tue 04:53:54 PM 38.0833 -85.6833 90° East 243 280 4,500  Level Louisville TRACON
Tue 04:54:49 PM 38.0800 -85.6090 87° East 287 330 6,700 2,432 Climbing FlightAware ADS-B
Tue 04:55:08 PM 38.0803 -85.5817 92° East 287 330 7,500 2,492 Climbing Indianapolis Center
Tue 04:56:59 PM 38.0710 -85.3610 93° East 380 437 12,100 2,706 Climbing FlightAware ADS-B
Tue 04:59:00 PM 38.0333 -85.0486 90° East  Level FlightAware Approximate
Tue 05:00:14 PM 38.0430 -84.8430 92° East 499 574 21,300  Level FlightAware ADS-B
Tue 05:04:00 PM 38.0120 -84.2670 94° East 499 574 21,500 1,150 Climbing FlightAware ADS-B
Tue 05:08:40 PM 37.9393 -83.1623 94° East 572 658 31,000 1,986 Climbing FlightAware ADS-B
Tue 05:08:47 PM 37.9377 -83.1378 95° East 572 658 31,000 1,412 Level FlightAware ADS-B
Tue 05:10:05 PM 37.9193 -82.8778 95° East 571 657 33,000 710 Climbing FlightAware ADS-B
Tue 05:11:36 PM 37.8973 -82.5749 95° East 571 657 33,000  Level FlightAware ADS-B
Tue 05:13:31 PM 37.8683 -82.1925 95° East 574 661 33,000 161 Level FlightAware ADS-B
Tue 05:15:57 PM 37.8300 -81.7120 96° East 571 657 33,700 337 Climbing FlightAware ADS-B
Tue 05:16:29 PM 37.8210 -81.6030 96° East 577 664 34,000 305 Climbing FlightAware ADS-B
Tue 05:16:56 PM 37.8132 -81.5112 96° East 571 657 34,000  Level FlightAware ADS-B
Tue 05:17:27 PM 37.8046 -81.4075 96° East 584 672 34,000  Level FlightAware ADS-B
Tue 05:17:58 PM 37.7957 -81.3020 96° East 585 673 34,000 72 Level FlightAware ADS-B
Tue 05:18:50 PM 37.7840 -81.1260 95° East 592 681 34,100 313 Climbing FlightAware ADS-B
Tue 05:19:34 PM 37.7900 -80.9740 87° East 602 693 34,500 500 Climbing FlightAware ADS-B
Tue 05:20:02 PM 37.7970 -80.8740 85° East 607 699 34,700 455 Climbing FlightAware ADS-B
Tue 05:20:40 PM 37.8060 -80.7400 85° East 614 707 35,000 295 Climbing FlightAware ADS-B
Tue 05:21:03 PM 37.8110 -80.6560 86° East 616 709 35,000  Level FlightAware ADS-B
Tue 05:21:53 PM 37.8230 -80.4780 85° East 604 695 35,000  Level FlightAware ADS-B
Tue 05:22:27 PM 37.8300 -80.3570 86° East 599 689 35,000  Level FlightAware ADS-B
Tue 05:23:03 PM 37.8380 -80.2320 85° East 598 688 35,000  Level FlightAware ADS-B
Tue 05:23:43 PM 37.8460 -80.0940 86° East 599 689 35,000  Level FlightAware ADS-B
Tue 05:24:21 PM 37.8540 -79.9650 85° East 601 692 35,000  Level FlightAware ADS-B
Tue 05:24:56 PM 37.8610 -79.8360 86° East 603 694 35,000  Level FlightAware ADS-B
Tue 05:25:41 PM 37.8700 -79.6850 86° East 605 696 35,000  Level FlightAware ADS-B
Tue 05:26:24 PM 37.8770 -79.5440 86° East 606 697 35,000  Level FlightAware ADS-B
Tue 05:27:03 PM 37.8860 -79.3920 86° East 611 703 35,000  Level FlightAware ADS-B
Tue 05:27:35 PM 37.8920 -79.2740 86° East 611 703 35,000  Level FlightAware ADS-B
Tue 05:28:15 PM 37.8990 -79.1530 86° East 611 703 35,000  Level FlightAware ADS-B
Tue 05:29:07 PM 37.9200 -78.9440 83° East 622 716 35,000  Level FlightAware ADS-B
Tue 05:29:51 PM 37.9390 -78.7890 81° East 623 717 35,000  Level FlightAware ADS-B
Tue 05:30:41 PM 37.9610 -78.6050 81° East 620 713 35,000  Level FlightAware ADS-B
Tue 05:31:39 PM 37.9850 -78.4020 81° East 620 713 35,000  Level FlightAware ADS-B
Tue 05:32:35 PM 38.0120 -78.1970 80° East 626 720 35,000  Level FlightAware ADS-B
Tue 05:33:31 PM 38.0830 -78.0140 64° Northeast 628 723 35,000  Level FlightAware ADS-B
Tue 05:34:19 PM 38.1580 -77.8640 58° Northeast 627 722 35,000  Level FlightAware ADS-B
Tue 05:35:09 PM 38.2350 -77.7090 58° Northeast 626 720 35,000  Level FlightAware ADS-B
Tue 05:36:07 PM 38.3240 -77.5290 58° Northeast 626 720 35,000  Level FlightAware ADS-B
Tue 05:36:53 PM 38.3930 -77.3890 58° Northeast 626 720 35,000  Level FlightAware ADS-B
Tue 05:37:39 PM 38.4640 -77.2430 58° Northeast 627 722 35,000  Level FlightAware ADS-B
Tue 05:38:33 PM 38.5480 -77.0710 58° Northeast 627 722 35,000  Level FlightAware ADS-B
Tue 05:39:01 PM 38.5980 -76.9900 52° Northeast 618 711 35,000 -500 Level FlightAware ADS-B
Tue 05:39:33 PM 38.6600 -76.9050 47° Northeast 616 709 34,500 -1,565 Descending FlightAware ADS-B
Tue 05:40:33 PM 38.7740 -76.7470 47° Northeast 600 690 32,600 -1,966 Descending FlightAware ADS-B
Tue 05:41:29 PM 38.8790 -76.5940 49° Northeast 620 713 30,700 -2,236 Descending FlightAware ADS-B
Tue 05:42:23 PM 38.9810 -76.4440 49° Northeast 618 711 28,500 -2,538 Descending FlightAware ADS-B
Tue 05:42:47 PM 39.0250 -76.3830 47° Northeast 610 702 27,400 -1,154 Descending FlightAware ADS-B
Tue 05:43:41 PM 39.1310 -76.2530 44° Northeast 585 673 27,000 -300 Descending FlightAware ADS-B
Tue 05:44:07 PM 39.1820 -76.1930 42° Northeast 589 678 27,000  Level FlightAware ADS-B
Tue 05:44:52 PM 39.2766 -76.0820 42° Northeast 591 680 27,000  Level FlightAware ADS-B (KSYR)
Tue 05:45:46 PM 39.3859 -75.9534 42° Northeast 590 679 27,000  Level FlightAware ADS-B (KSYR)
Tue 05:46:17 PM 39.4480 -75.8800 42° Northeast 590 679 27,000 -985 Level FlightAware ADS-B (KSYR)
Tue 05:46:53 PM 39.5171 -75.7983 42° Northeast 604 695 25,900 -2,029 Descending FlightAware ADS-B (KSYR)
Tue 05:47:25 PM 39.5171 -75.7983 42° Northeast 598 688 24,700 -2,591 Descending FlightAware ADS-B (KSYR)
Tue 05:48:21 PM 39.6970 -75.5840 42° Northeast 573 659 22,100 -3,273 Descending FlightAware ADS-B
Tue 05:48:31 PM 39.7368 -75.5362 43° Northeast 563 648 21,100 -3,600 Descending FlightAware ADS-B
Tue 05:49:01 PM 39.7902 -75.4718 43° Northeast 547 629 19,700 -2,361 Descending FlightAware ADS-B
Tue 05:49:32 PM 39.8492 -75.4004 43° Northeast 525 604 18,700 -2,273 Descending FlightAware ADS-B
Tue 05:50:07 PM 39.9032 -75.3353 43° Northeast 503 579 17,200 -2,486 Descending FlightAware ADS-B
Tue 05:50:42 PM 39.9706 -75.2534 43° Northeast 495 570 15,800 -1,786 Descending FlightAware ADS-B
Tue 05:51:31 PM 40.0290 -75.1820 43° Northeast 469 540 14,700 -2,464 Descending FlightAware ADS-B
Tue 05:52:34 PM 40.1290 -75.0600 43° Northeast 436 502 11,200 -2,588 Descending FlightAware ADS-B
Tue 05:53:13 PM 40.1840 -74.9930 43° Northeast 406 467 10,300 -711 Descending FlightAware ADS-B
Tue 05:53:50 PM 40.2290 -74.9370 44° Northeast 329 379 10,300 -783 Level FlightAware ADS-B
Tue 05:54:22 PM 40.2620 -74.8950 44° Northeast 306 352 9,400 -1,900 Descending FlightAware ADS-B
Tue 05:54:50 PM 40.2890 -74.8570 47° Northeast 297 342 8,400 -1,083 Descending FlightAware ADS-B
Tue 05:55:34 PM 40.3270 -74.8010 48° Northeast 301 346 8,100 -522 Descending FlightAware ADS-B
Tue 05:55:59 PM 40.3440 -74.7590 62° Northeast 301 346 7,800 -1,000 Descending FlightAware ADS-B
Tue 05:56:28 PM 40.3650 -74.7110 60° Northeast 297 342 7,200 -1,263 Descending FlightAware ADS-B
Tue 05:56:56 PM 40.3840 -74.6670 60° Northeast 293 337 6,600 -1,111 Descending FlightAware ADS-B
Tue 05:57:22 PM 40.4000 -74.6290 61° Northeast 289 333 6,200 -462 Descending FlightAware ADS-B
Tue 05:57:48 PM 40.4180 -74.5880 60° Northeast 292 336 6,200  Level FlightAware ADS-B
Tue 05:58:23 PM 40.4490 -74.5480 44° Northeast 264 304 6,200 -83 Level FlightAware ADS-B
Tue 05:59:00 PM 40.4870 -74.5160 33° Northeast 264 304 6,100  Descending FlightAware ADS-B
Tue 05:59:41 PM 40.5330 -74.5230 353° North 242 278 6,200  Climbing FlightAware ADS-B
Tue 06:00:17 PM 40.5680 -74.5370 343° North 240 276 6,100  Descending FlightAware ADS-B
Tue 06:00:56 PM 40.6120 -74.5550 343° North 238 274 6,200 88 Climbing FlightAware ADS-B
Tue 06:01:25 PM 40.6420 -74.5670 343° North 237 273 6,200  Level FlightAware ADS-B
Tue 06:01:52 PM 40.6710 -74.5780 344° North 238 274 6,200  Level FlightAware ADS-B
Tue 06:02:26 PM 40.7070 -74.5740 North 255 293 6,200 -82 Level FlightAware ADS-B
Tue 06:03:05 PM 40.7500 -74.5490 24° Northeast 257 296 6,100 -100 Descending FlightAware ADS-B
Tue 06:03:26 PM 40.7720 -74.5360 24° Northeast 256 295 6,100 -255 Level FlightAware ADS-B
Tue 06:03:52 PM 40.8034 -74.5180 23° Northeast 255 293 5,900 -571 Descending FlightAware ADS-B
Tue 06:04:08 PM 40.8209 -74.5079 24° Northeast 252 290 5,700 -882 Descending FlightAware ADS-B
Tue 06:04:26 PM 40.8392 -74.4976 23° Northeast 249 287 5,400 -417 Descending FlightAware ADS-B
Tue 06:05:20 PM 40.8828 -74.4433 43° Northeast 263 303 5,200 -257 Descending FlightAware ADS-B
Tue 06:05:36 PM 40.8892 -74.4188 71° East 264 304 5,100  Descending FlightAware ADS-B
Tue 06:06:26 PM 40.9090 -74.3450 70° East 265 305 5,200 -58 Climbing FlightAware ADS-B
Tue 06:07:20 PM 40.9323 -74.2626 69° East 258 297 5,000 -525 Descending FlightAware ADS-B
Tue 06:07:46 PM 40.9312 -74.2231 92° East 258 297 4,500 -1,091 Descending FlightAware ADS-B
Tue 06:08:04 PM 40.9280 -74.1939 98° East 259 298 4,200 -444 Descending FlightAware ADS-B
Tue 06:08:40 PM 40.9118 -74.1449 114° Southeast 231 266 4,100  Descending FlightAware ADS-B
Tue 06:08:55 PM 40.9050 -74.1270 117° Southeast 211 243 4,200 -194 Climbing FlightAware ADS-B
Tue 06:09:11 PM 40.8985 -74.1098 117° Southeast 202 232 4,000 -1,080 Descending FlightAware ADS-B
Tue 06:09:45 PM 40.8844 -74.0726 117° Southeast 202 232 3,300 -1,263 Descending FlightAware ADS-B
Tue 06:09:49 PM 40.8818 -74.0686 131° Southeast 200 230 3,200 -1,286 Descending FlightAware ADS-B
Tue 06:09:59 PM 40.8741 -74.0625 149° Southeast 195 224 3,000 -1,333 Descending FlightAware ADS-B
Tue 06:10:07 PM 40.8670 -74.0608 170° South 192 221 2,800 -889 Descending FlightAware ADS-B
Tue 06:10:26 PM 40.8512 -74.0640 189° South 180 207 2,600 -250 Descending FlightAware ADS-B
Tue 06:10:31 PM 40.8476 -74.0658 201° Southwest 179 206 2,700 667 Climbing FlightAware ADS-B
Tue 06:10:35 PM 40.8447 -74.0675 204° Southwest 178 205 2,700  Level FlightAware ADS-B
Tue 06:10:40 PM 40.8405 -74.0703 207° Southwest 178 205 2,700  Level FlightAware ADS-B
Tue 06:10:50 PM 40.8336 -74.0749 207° Southwest 179 206 2,700 -300 Level FlightAware ADS-B
Tue 06:11:00 PM 40.8257 -74.0799 206° Southwest 181 208 2,600  Descending FlightAware ADS-B
Tue 06:11:12 PM 40.8168 -74.0855 205° Southwest 178 205 2,700 -308 Climbing FlightAware ADS-B
Tue 06:11:39 PM 40.7969 -74.0982 206° Southwest 180 207 2,400 -833 Descending FlightAware ADS-B
Tue 06:11:48 PM 40.7901 -74.1025 206° Southwest 177 204 2,200 -1,043 Descending FlightAware ADS-B
Tue 06:12:02 PM 40.7799 -74.1091 206° Southwest 173 199 2,000 -828 Descending FlightAware ADS-B
Tue 06:12:17 PM 40.7691 -74.1160 206° Southwest 165 190 1,800 -968 Descending FlightAware ADS-B
Tue 06:12:33 PM 40.7589 -74.1224 205° Southwest 160 184 1,500 -1,000 Descending FlightAware ADS-B
Tue 06:12:41 PM 40.7537 -74.1257 206° Southwest 151 174 1,400 -800 Descending FlightAware ADS-B
Tue 06:12:48 PM 40.7495 -74.1285 207° Southwest 143 165 1,300 -818 Descending FlightAware ADS-B
Tue 06:13:03 PM 40.7407 -74.1340 205° Southwest 135 155 1,100 -857 Descending FlightAware ADS-B
Tue 06:13:09 PM 40.7374 -74.1362 207° Southwest 137 158 1,000 -643 Descending FlightAware ADS-B
Tue 06:13:31 PM 40.7246 -74.1443 206° Southwest 138 159 800 -643 Descending FlightAware ADS-B
Tue 06:14:05 PM 40.7070 -74.1550 205° Southwest 136 157 400 -643 Descending FlightAware ADS-B
Tue 06:14:27 PM 40.6970 -74.1620 208° Southwest 136 157 200 -255 Descending FlightAware ADS-B
Tue 06:14:52 PM 40.6850 -74.1700 207° Southwest 136 157 200  Level FlightAware ADS-B

Login

Don't have an account? Register now (free) for customized features, flight alerts, and more!